Time;durP1;ratioP1;P1;durP2;ratioP2;P2;SDS_P1;SDS_P2;PMS_P1;PMS_P2;Temp;Humidity;BMP_temperature;BMP_pressure;BME280_temperature;BME280_humidity;BME280_pressure;Samples;Min_cycle;Max_cycle;Signal;HPM_P1;HPM_P2
2023/06/10 00:00:48;;;;;;;10.77;5.93;;;20.70;99.90;;;;;;5016656;28;20052;-69
2023/06/10 00:03:14;;;;;;;13.25;6.40;;;20.80;99.90;;;;;;5016941;28;20022;-69
2023/06/10 00:05:40;;;;;;;8.68;5.82;;;20.90;99.90;;;;;;5017523;28;20037;-69
2023/06/10 00:08:10;;;;;;;10.27;6.28;;;20.80;99.90;;;;;;5016718;28;20084;-69
2023/06/10 00:10:37;;;;;;;10.20;6.13;;;20.80;99.90;;;;;;5017493;28;20082;-69
2023/06/10 00:13:11;;;;;;;7.72;6.25;;;20.80;99.90;;;;;;5016702;28;20030;-69
2023/06/10 00:15:37;;;;;;;9.70;6.50;;;20.80;99.90;;;;;;5017564;28;20026;-69
2023/06/10 00:18:03;;;;;;;9.52;5.95;;;20.80;99.90;;;;;;5016374;28;20025;-69
2023/06/10 00:20:30;;;;;;;8.82;6.72;;;20.70;99.90;;;;;;5017458;28;20128;-69
2023/06/10 00:22:56;;;;;;;8.02;6.10;;;20.70;99.90;;;;;;5017286;28;20029;-69
2023/06/10 00:25:22;;;;;;;10.63;6.40;;;20.70;99.90;;;;;;5017250;28;20026;-69
2023/06/10 00:27:48;;;;;;;10.13;7.30;;;20.60;99.90;;;;;;5017106;28;20021;-69
2023/06/10 00:30:13;;;;;;;10.90;6.38;;;20.60;99.90;;;;;;5032566;28;20022;-69
2023/06/10 00:32:39;;;;;;;7.97;6.55;;;20.60;99.90;;;;;;5016955;28;20037;-69
2023/06/10 00:35:05;;;;;;;11.43;6.55;;;20.50;99.90;;;;;;5016340;28;20029;-69
2023/06/10 00:37:32;;;;;;;7.70;6.32;;;20.50;99.90;;;;;;5016301;28;20080;-69
2023/06/10 00:39:57;;;;;;;7.40;6.13;;;20.40;99.90;;;;;;5016529;28;20260;-69
2023/06/10 00:42:24;;;;;;;8.88;6.40;;;20.40;99.90;;;;;;5017180;28;20030;-69
2023/06/10 00:44:50;;;;;;;8.95;6.90;;;20.30;99.90;;;;;;5016508;28;20022;-69
2023/06/10 00:47:16;;;;;;;11.13;6.97;;;20.30;99.90;;;;;;5017310;28;20057;-69
2023/06/10 00:49:42;;;;;;;7.72;6.55;;;20.20;99.90;;;;;;5016886;28;20041;-69
2023/06/10 00:52:08;;;;;;;8.77;7.30;;;20.20;99.90;;;;;;5016184;28;20056;-69
2023/06/10 00:54:34;;;;;;;11.27;7.25;;;20.20;99.90;;;;;;5032631;28;20033;-69
2023/06/10 00:57:01;;;;;;;10.95;7.45;;;20.10;99.90;;;;;;5016265;28;20022;-69
2023/06/10 00:59:29;;;;;;;10.60;6.93;;;20.10;99.90;;;;;;5016421;28;20029;-69
2023/06/10 01:01:56;;;;;;;14.07;7.45;;;20.10;99.90;;;;;;5016900;28;20029;-69
2023/06/10 01:04:23;;;;;;;9.45;6.70;;;20.00;99.90;;;;;;5000119;28;20065;-69
2023/06/10 01:07:28;;;;;;;14.65;7.07;;;20.10;99.90;;;;;;4996706;28;20027;-69
2023/06/10 01:10:03;;;;;;;10.18;7.05;;;20.10;99.90;;;;;;4997514;28;20033;-69
2023/06/10 01:12:51;;;;;;;10.57;7.00;;;20.10;99.90;;;;;;4996679;28;20022;-69
2023/06/10 01:15:18;;;;;;;10.38;6.68;;;20.10;99.90;;;;;;4996620;28;20085;-69
2023/06/10 01:17:59;;;;;;;13.63;7.20;;;20.10;99.90;;;;;;4996332;28;20033;-69
2023/06/10 01:20:29;;;;;;;11.40;7.85;;;20.10;99.90;;;;;;5022774;22;20037;-69
2023/06/10 01:22:55;;;;;;;9.65;6.70;;;20.10;99.90;;;;;;4997159;28;20037;-69
2023/06/10 01:25:27;;;;;;;12.02;7.25;;;19.90;99.90;;;;;;5012612;28;20094;-69
2023/06/10 01:28:17;;;;;;;10.38;6.45;;;19.90;99.90;;;;;;4996482;28;20026;-69
2023/06/10 01:30:51;;;;;;;11.93;6.90;;;19.90;99.90;;;;;;4997439;28;20034;-69
2023/06/10 01:33:24;;;;;;;10.27;7.15;;;19.70;99.90;;;;;;4997437;28;20101;-69
2023/06/10 01:35:51;;;;;;;12.77;7.30;;;19.70;99.90;;;;;;4997260;28;20030;-69
2023/06/10 01:38:19;;;;;;;10.48;6.93;;;19.70;99.90;;;;;;4996325;28;20023;-69
2023/06/10 01:40:46;;;;;;;11.52;7.55;;;19.70;99.90;;;;;;5013390;28;20053;-69
2023/06/10 01:43:12;;;;;;;13.77;7.75;;;19.60;99.90;;;;;;5016236;28;20032;-69
2023/06/10 01:45:37;;;;;;;9.73;7.13;;;19.70;99.90;;;;;;5015937;28;20030;-70
2023/06/10 01:48:03;;;;;;;9.73;7.18;;;19.60;99.90;;;;;;5016188;28;20117;-70
2023/06/10 01:50:29;;;;;;;14.02;7.25;;;19.60;99.90;;;;;;5016159;28;20022;-70
2023/06/10 01:52:54;;;;;;;10.45;7.28;;;19.60;99.90;;;;;;5016431;28;20027;-71
2023/06/10 01:55:19;;;;;;;12.70;7.40;;;19.50;99.90;;;;;;4999503;28;20022;-71
2023/06/10 01:57:45;;;;;;;14.07;8.18;;;19.40;99.90;;;;;;5016050;28;20099;-70
2023/06/10 02:00:11;;;;;;;10.23;7.47;;;19.50;99.90;;;;;;5015731;28;20034;-70
2023/06/10 02:02:37;;;;;;;9.07;7.05;;;19.40;99.90;;;;;;5015556;28;20026;-70
2023/06/10 02:05:03;;;;;;;15.00;7.50;;;19.30;99.90;;;;;;5015569;28;20053;-70
2023/06/10 02:07:28;;;;;;;10.75;6.93;;;19.40;99.90;;;;;;5000760;28;20049;-70
2023/06/10 02:09:54;;;;;;;11.15;7.18;;;19.20;99.90;;;;;;5015498;28;20026;-70
2023/06/10 02:12:20;;;;;;;9.38;6.95;;;19.20;99.90;;;;;;5015447;28;20084;-70
2023/06/10 02:14:45;;;;;;;14.80;7.72;;;19.20;99.90;;;;;;5015794;28;20022;-70
2023/06/10 02:17:12;;;;;;;10.82;7.75;;;19.30;99.90;;;;;;5015422;28;20150;-70
2023/06/10 02:19:42;;;;;;;13.23;8.35;;;19.20;99.90;;;;;;5015372;28;20026;-70
2023/06/10 02:22:08;;;;;;;11.93;7.53;;;19.20;99.90;;;;;;4999214;28;20042;-70
2023/06/10 02:24:35;;;;;;;13.20;8.18;;;19.20;99.90;;;;;;5015236;28;20028;-70
2023/06/10 02:27:02;;;;;;;14.13;7.82;;;19.10;99.90;;;;;;5015209;28;20034;-70
2023/06/10 02:29:27;;;;;;;13.48;8.95;;;19.00;99.90;;;;;;5000052;28;20022;-70
2023/06/10 02:31:53;;;;;;;11.50;7.63;;;19.00;99.90;;;;;;5015423;28;20030;-69
2023/06/10 02:34:18;;;;;;;11.07;7.35;;;19.00;99.90;;;;;;4999632;28;20049;-69
2023/06/10 02:36:44;;;;;;;9.18;7.32;;;19.00;99.90;;;;;;5014936;28;20057;-70
2023/06/10 02:39:09;;;;;;;10.23;7.38;;;18.90;99.90;;;;;;5015097;28;20077;-71
2023/06/10 02:41:35;;;;;;;11.13;7.55;;;18.80;99.90;;;;;;4999534;28;20018;-71
2023/06/10 02:44:01;;;;;;;10.43;7.35;;;18.90;99.90;;;;;;4999626;28;20026;-70
2023/06/10 02:46:28;;;;;;;12.07;7.22;;;18.90;99.90;;;;;;5014770;28;20034;-70
2023/06/10 02:48:54;;;;;;;11.43;7.30;;;18.80;99.90;;;;;;4999890;28;20057;-70
2023/06/10 02:51:20;;;;;;;13.98;7.97;;;18.80;99.90;;;;;;5014262;28;20220;-70
2023/06/10 02:53:46;;;;;;;9.65;7.35;;;18.90;99.90;;;;;;4999477;28;20109;-70
2023/06/10 02:56:12;;;;;;;9.60;7.00;;;18.90;99.90;;;;;;5014744;28;20057;-70
2023/06/10 02:58:38;;;;;;;10.52;6.88;;;18.90;99.90;;;;;;4999366;28;20038;-70
2023/06/10 03:01:03;;;;;;;10.32;7.18;;;18.90;99.90;;;;;;5015215;28;20054;-71
2023/06/10 03:03:30;;;;;;;10.02;7.47;;;18.90;99.90;;;;;;4999239;28;20033;-71
2023/06/10 03:05:56;;;;;;;9.40;7.15;;;18.70;99.90;;;;;;5014476;28;20029;-71
2023/06/10 03:08:22;;;;;;;9.32;7.03;;;18.70;99.90;;;;;;5015351;28;20027;-70
2023/06/10 03:10:47;;;;;;;10.85;7.43;;;18.70;99.90;;;;;;5015487;28;20018;-70
2023/06/10 03:13:14;;;;;;;9.35;7.07;;;18.70;99.90;;;;;;5014734;28;20133;-70
2023/06/10 03:15:40;;;;;;;14.07;7.68;;;18.60;99.90;;;;;;4999002;28;20026;-70
2023/06/10 03:18:06;;;;;;;8.57;7.30;;;18.50;99.90;;;;;;5014151;28;20030;-70
2023/06/10 03:20:37;;;;;;;11.23;7.57;;;18.50;99.90;;;;;;4999165;28;20025;-70
2023/06/10 03:23:10;;;;;;;13.05;8.07;;;18.50;99.90;;;;;;4999070;28;20077;-70
2023/06/10 03:25:35;;;;;;;12.45;7.50;;;18.50;99.90;;;;;;4998781;28;20110;-70
2023/06/10 03:28:01;;;;;;;13.23;7.57;;;18.70;99.90;;;;;;4997826;28;20038;-70
2023/06/10 03:30:28;;;;;;;13.50;7.32;;;18.70;99.90;;;;;;5015085;28;20061;-70
2023/06/10 03:32:53;;;;;;;10.75;7.07;;;18.80;99.90;;;;;;5014425;28;20026;-70
2023/06/10 03:35:19;;;;;;;8.73;7.07;;;18.80;99.90;;;;;;5013927;28;20080;-70
2023/06/10 03:37:45;;;;;;;15.52;7.13;;;18.70;99.90;;;;;;5013940;28;20029;-70
2023/06/10 03:40:11;;;;;;;8.63;7.43;;;18.70;99.90;;;;;;4998399;28;20029;-70
2023/06/10 03:42:36;;;;;;;7.85;6.65;;;18.80;99.90;;;;;;5014058;28;20033;-70
2023/06/10 03:45:04;;;;;;;9.13;6.97;;;18.70;99.90;;;;;;5013742;28;20054;-70
2023/06/10 03:47:36;;;;;;;12.25;7.57;;;18.70;99.90;;;;;;5014462;28;20031;-70
2023/06/10 03:50:03;;;;;;;14.95;7.45;;;18.60;99.90;;;;;;5013847;28;20033;-70
2023/06/10 03:52:30;;;;;;;10.55;6.78;;;18.50;99.90;;;;;;4998183;28;20037;-70
2023/06/10 03:54:55;;;;;;;9.52;6.95;;;18.60;99.90;;;;;;5013985;28;20026;-70
2023/06/10 03:57:21;;;;;;;9.52;7.30;;;18.60;99.90;;;;;;5013483;28;20037;-69
2023/06/10 03:59:47;;;;;;;10.75;7.43;;;18.60;99.90;;;;;;5014049;28;20022;-70
2023/06/10 04:02:12;;;;;;;9.85;7.30;;;18.60;99.90;;;;;;5014557;28;20121;-69
2023/06/10 04:04:38;;;;;;;12.65;7.43;;;18.50;99.90;;;;;;4997339;28;20085;-70
2023/06/10 04:07:04;;;;;;;12.82;6.45;;;18.50;99.90;;;;;;4998181;28;20027;-69
2023/06/10 04:09:30;;;;;;;11.70;6.95;;;18.50;99.90;;;;;;4998152;28;20105;-70
2023/06/10 04:11:56;;;;;;;10.05;7.15;;;18.50;99.90;;;;;;4997755;28;20106;-70
2023/06/10 04:14:22;;;;;;;7.95;6.38;;;18.60;99.90;;;;;;5014487;28;20049;-70
2023/06/10 04:16:47;;;;;;;9.82;7.10;;;18.50;99.90;;;;;;5013504;28;20034;-70
2023/06/10 04:19:13;;;;;;;12.45;7.28;;;18.50;99.90;;;;;;5013325;28;20026;-70
2023/06/10 04:21:38;;;;;;;9.88;7.78;;;18.60;99.90;;;;;;5013207;28;20088;-70
2023/06/10 04:24:04;;;;;;;10.13;7.07;;;18.60;99.90;;;;;;5013148;28;20023;-70
2023/06/10 04:26:30;;;;;;;11.32;7.70;;;18.60;99.90;;;;;;5013179;28;20054;-70
2023/06/10 04:28:55;;;;;;;10.43;7.20;;;18.60;99.90;;;;;;5013142;28;20031;-70
2023/06/10 04:31:21;;;;;;;8.88;6.57;;;18.50;99.90;;;;;;5013417;28;20037;-70
2023/06/10 04:33:46;;;;;;;11.45;7.50;;;18.40;99.90;;;;;;4997627;28;20030;-70
2023/06/10 04:36:12;;;;;;;13.70;7.60;;;18.50;99.90;;;;;;4997631;28;20022;-70
2023/06/10 04:38:37;;;;;;;13.85;6.93;;;18.60;99.90;;;;;;5013896;28;20094;-70
2023/06/10 04:41:03;;;;;;;10.70;7.03;;;18.50;99.90;;;;;;5012875;28;20030;-70
2023/06/10 04:43:30;;;;;;;13.10;7.13;;;18.60;99.90;;;;;;5013303;28;20110;-70
2023/06/10 04:45:56;;;;;;;10.88;6.47;;;18.70;99.90;;;;;;4997828;28;20053;-70
2023/06/10 04:48:23;;;;;;;9.43;6.88;;;18.80;99.90;;;;;;4997672;28;20034;-70
2023/06/10 04:50:50;;;;;;;12.70;6.97;;;18.80;99.90;;;;;;5012948;28;20057;-70
2023/06/10 04:53:16;;;;;;;9.38;6.28;;;18.90;99.90;;;;;;5013663;28;20031;-70
2023/06/10 04:55:42;;;;;;;11.10;6.70;;;18.80;99.90;;;;;;5012974;28;20022;-70
2023/06/10 04:58:07;;;;;;;14.98;7.47;;;18.90;99.90;;;;;;5013784;28;20023;-70
2023/06/10 05:00:33;;;;;;;15.98;7.22;;;18.80;99.90;;;;;;4997342;28;20105;-70
2023/06/10 05:02:58;;;;;;;11.68;7.13;;;18.90;99.90;;;;;;5012833;28;20088;-70
2023/06/10 05:05:24;;;;;;;8.98;7.00;;;18.80;99.90;;;;;;4997377;28;20029;-70
2023/06/10 05:07:50;;;;;;;10.18;6.60;;;18.80;99.90;;;;;;5012822;28;20109;-70
2023/06/10 05:10:15;;;;;;;13.30;6.43;;;18.80;99.90;;;;;;4996810;28;20065;-70
2023/06/10 05:12:41;;;;;;;10.65;6.90;;;18.80;99.90;;;;;;4997188;28;20041;-70
2023/06/10 05:15:08;;;;;;;13.43;6.97;;;18.90;99.90;;;;;;5014477;28;20033;-70
2023/06/10 05:17:34;;;;;;;11.93;6.80;;;18.90;99.90;;;;;;5016483;28;20030;-70
2023/06/10 05:20:00;;;;;;;11.23;6.20;;;18.80;99.90;;;;;;5001303;28;20018;-70
2023/06/10 05:22:27;;;;;;;12.07;6.15;;;18.80;99.90;;;;;;5016769;28;20121;-70
2023/06/10 05:24:53;;;;;;;8.02;6.05;;;18.90;99.90;;;;;;5001044;28;20019;-70
2023/06/10 05:27:18;;;;;;;11.90;6.70;;;19.00;99.90;;;;;;5016391;28;20026;-70
2023/06/10 05:29:45;;;;;;;7.72;6.13;;;19.00;99.90;;;;;;5017163;28;20042;-70
2023/06/10 05:32:11;;;;;;;10.77;6.90;;;19.10;99.90;;;;;;5016127;28;20035;-70
2023/06/10 05:34:37;;;;;;;10.40;6.47;;;19.10;99.90;;;;;;5016115;28;20057;-70
2023/06/10 05:37:03;;;;;;;9.93;6.22;;;19.20;99.90;;;;;;5015725;28;20062;-69
2023/06/10 05:39:28;;;;;;;11.70;6.30;;;19.20;99.90;;;;;;5015872;28;20027;-69
2023/06/10 05:41:54;;;;;;;8.48;5.85;;;19.20;99.90;;;;;;5000524;28;20026;-69
2023/06/10 05:44:19;;;;;;;12.35;6.22;;;19.20;99.90;;;;;;5000464;28;20041;-69
2023/06/10 05:46:45;;;;;;;11.02;6.50;;;19.20;99.90;;;;;;4999515;28;20026;-69
2023/06/10 05:49:10;;;;;;;11.50;6.32;;;19.20;99.90;;;;;;5015559;28;20022;-68
2023/06/10 05:51:37;;;;;;;9.20;6.70;;;19.20;99.90;;;;;;4999506;28;20027;-68
2023/06/10 05:54:02;;;;;;;7.45;6.03;;;19.40;99.90;;;;;;4999187;28;20109;-69
2023/06/10 05:56:28;;;;;;;10.63;6.45;;;19.40;99.90;;;;;;4999182;28;20091;-69
2023/06/10 05:58:54;;;;;;;8.57;6.20;;;19.40;99.90;;;;;;5015542;28;20026;-68
2023/06/10 06:01:19;;;;;;;9.57;6.18;;;19.50;99.90;;;;;;4999048;28;20029;-68
2023/06/10 06:03:45;;;;;;;12.20;6.30;;;19.60;99.90;;;;;;4998991;28;20018;-68
2023/06/10 06:06:10;;;;;;;11.25;6.20;;;19.70;99.90;;;;;;5015196;28;20113;-68
2023/06/10 06:08:36;;;;;;;7.93;5.43;;;19.80;99.90;;;;;;5015054;28;20023;-68
2023/06/10 06:11:02;;;;;;;11.63;6.45;;;19.80;99.90;;;;;;4999943;28;20022;-68
2023/06/10 06:13:27;;;;;;;7.93;5.82;;;19.90;99.90;;;;;;4999595;28;20062;-68
2023/06/10 06:15:53;;;;;;;7.10;5.68;;;19.90;99.90;;;;;;5015239;28;20089;-68
2023/06/10 06:18:18;;;;;;;11.18;5.78;;;20.00;99.90;;;;;;4999365;28;20033;-68
2023/06/10 06:20:44;;;;;;;11.07;5.80;;;20.00;99.90;;;;;;4998405;28;20026;-69
2023/06/10 06:23:12;;;;;;;9.00;6.15;;;20.10;99.90;;;;;;4999610;28;20068;-69
2023/06/10 06:25:38;;;;;;;8.80;5.88;;;20.10;99.90;;;;;;5014832;28;20023;-69
2023/06/10 06:28:06;;;;;;;9.25;6.10;;;20.20;99.90;;;;;;4999041;28;20046;-69
2023/06/10 06:30:32;;;;;;;8.77;5.50;;;20.30;99.90;;;;;;4999122;28;20077;-69
2023/06/10 06:32:57;;;;;;;11.38;5.43;;;20.40;99.90;;;;;;5015244;28;20026;-68
2023/06/10 06:35:23;;;;;;;5.90;5.20;;;20.40;99.90;;;;;;5015163;28;20026;-69
2023/06/10 06:37:48;;;;;;;9.63;5.65;;;20.60;99.90;;;;;;5015795;28;20030;-69
2023/06/10 06:40:14;;;;;;;8.05;5.50;;;20.50;99.90;;;;;;5015019;28;20049;-69
2023/06/10 06:42:39;;;;;;;9.05;5.97;;;20.60;99.90;;;;;;5015178;28;20022;-69
2023/06/10 06:45:05;;;;;;;10.57;5.53;;;20.70;99.90;;;;;;5015154;28;20073;-68
2023/06/10 06:47:31;;;;;;;7.93;5.30;;;20.70;99.90;;;;;;5015039;28;20033;-68
2023/06/10 06:49:57;;;;;;;7.18;5.32;;;20.80;99.90;;;;;;4998328;28;20041;-68
2023/06/10 06:52:22;;;;;;;6.75;5.07;;;20.90;99.90;;;;;;5014276;28;20033;-68
2023/06/10 06:54:48;;;;;;;8.68;5.63;;;21.00;99.90;;;;;;5014277;28;20022;-70
2023/06/10 06:57:13;;;;;;;5.35;4.75;;;21.10;99.90;;;;;;5014096;28;20030;-69
2023/06/10 06:59:39;;;;;;;10.52;5.88;;;21.10;99.90;;;;;;5014362;28;20088;-70
2023/06/10 07:02:06;;;;;;;8.50;4.82;;;21.20;99.90;;;;;;4998705;28;20026;-70
2023/06/10 07:04:31;;;;;;;12.32;5.40;;;21.20;99.90;;;;;;5014141;28;20049;-71
2023/06/10 07:06:57;;;;;;;7.22;5.15;;;21.20;99.90;;;;;;4998367;28;20023;-72
2023/06/10 07:09:22;;;;;;;7.10;5.25;;;21.30;99.90;;;;;;5014815;28;20066;-71
2023/06/10 07:11:48;;;;;;;13.25;5.07;;;21.30;99.90;;;;;;5015214;28;20073;-72
2023/06/10 07:14:13;;;;;;;9.50;4.88;;;21.40;99.90;;;;;;5013952;28;20022;-71
2023/06/10 07:16:39;;;;;;;8.68;5.15;;;21.50;99.90;;;;;;5014309;28;20022;-72
2023/06/10 07:19:04;;;;;;;12.48;5.05;;;21.70;99.90;;;;;;4998797;28;20046;-72
2023/06/10 07:21:32;;;;;;;11.20;4.95;;;21.80;99.90;;;;;;5014823;28;20038;-69
2023/06/10 07:23:57;;;;;;;7.28;4.85;;;21.80;99.90;;;;;;4998084;28;20026;-69
2023/06/10 07:26:23;;;;;;;8.73;4.72;;;22.00;99.90;;;;;;4998621;28;20085;-71
2023/06/10 07:28:48;;;;;;;5.25;4.28;;;22.00;99.90;;;;;;5014151;28;20026;-71
2023/06/10 07:31:14;;;;;;;15.18;4.85;;;22.10;99.90;;;;;;5014692;28;20026;-71
2023/06/10 07:33:39;;;;;;;6.32;4.65;;;22.10;99.90;;;;;;4998841;28;20033;-72
2023/06/10 07:36:06;;;;;;;9.23;5.18;;;22.10;99.90;;;;;;5013871;28;20084;-72
2023/06/10 07:38:31;;;;;;;9.77;4.40;;;22.10;99.90;;;;;;5013830;28;20053;-71
2023/06/10 07:40:57;;;;;;;8.80;5.10;;;22.20;99.90;;;;;;5014703;28;20085;-71
2023/06/10 07:43:24;;;;;;;11.88;5.30;;;22.30;99.90;;;;;;5013798;28;20166;-70
2023/06/10 07:45:50;;;;;;;6.85;4.60;;;22.30;99.90;;;;;;5014002;28;20073;-70
2023/06/10 07:48:15;;;;;;;10.45;4.53;;;22.30;99.90;;;;;;5013709;28;20026;-70
2023/06/10 07:50:41;;;;;;;10.85;5.28;;;22.50;99.90;;;;;;5014446;28;20018;-72
2023/06/10 07:53:07;;;;;;;12.85;5.00;;;22.50;99.90;;;;;;5013944;28;20113;-71
2023/06/10 07:55:32;;;;;;;7.70;4.72;;;22.60;99.90;;;;;;5013956;28;20033;-70
2023/06/10 07:57:58;;;;;;;11.85;5.80;;;22.70;99.90;;;;;;5013851;28;20026;-70
2023/06/10 08:00:23;;;;;;;8.10;5.25;;;22.70;99.90;;;;;;5013792;28;20049;-70
2023/06/10 08:02:50;;;;;;;8.02;4.97;;;22.70;99.90;;;;;;5013860;28;20022;-70
2023/06/10 08:05:16;;;;;;;8.07;5.60;;;22.90;99.90;;;;;;5013604;28;20027;-69
2023/06/10 08:07:42;;;;;;;10.45;5.07;;;23.00;99.90;;;;;;5013543;28;20121;-69
2023/06/10 08:10:08;;;;;;;11.00;5.60;;;23.20;99.90;;;;;;5013477;28;20058;-69
2023/06/10 08:12:34;;;;;;;6.95;4.97;;;23.40;99.90;;;;;;5013568;28;20026;-70
2023/06/10 08:15:00;;;;;;;7.25;4.43;;;23.40;99.90;;;;;;5013829;28;20023;-69
2023/06/10 08:17:26;;;;;;;8.55;4.55;;;23.50;99.90;;;;;;5013737;28;20026;-70
2023/06/10 08:19:52;;;;;;;11.77;5.45;;;23.50;99.90;;;;;;5013456;28;20022;-69
2023/06/10 08:22:18;;;;;;;7.13;4.97;;;23.50;99.90;;;;;;5013420;28;20030;-69
2023/06/10 08:24:43;;;;;;;13.15;5.00;;;23.50;99.90;;;;;;5014265;28;20026;-69
2023/06/10 08:27:10;;;;;;;8.27;4.72;;;23.50;99.90;;;;;;5013100;28;20084;-69
2023/06/10 08:29:35;;;;;;;8.70;5.18;;;23.50;99.90;;;;;;5013289;28;20030;-68
2023/06/10 08:32:01;;;;;;;12.27;5.60;;;23.60;99.90;;;;;;5013185;28;20033;-68
2023/06/10 08:34:27;;;;;;;5.97;4.45;;;23.70;99.90;;;;;;5013496;28;20019;-68
2023/06/10 08:36:55;;;;;;;7.43;5.10;;;23.70;99.90;;;;;;5013326;28;20073;-68
2023/06/10 08:39:23;;;;;;;7.57;4.57;;;23.70;99.90;;;;;;5014144;28;20113;-68
2023/06/10 08:42:27;;;;;;;8.43;5.00;;;23.80;99.90;;;;;;5013361;28;20030;-68
2023/06/10 08:44:58;;;;;;;8.82;5.10;;;24.10;99.90;;;;;;4983586;28;20085;-68
2023/06/10 08:47:25;;;;;;;6.53;4.68;;;24.30;99.90;;;;;;5013808;28;20054;-68
2023/06/10 08:49:52;;;;;;;10.73;5.35;;;24.20;99.90;;;;;;5014390;28;20102;-68
2023/06/10 08:52:19;;;;;;;6.75;4.63;;;24.20;99.90;;;;;;5017005;28;20026;-68
2023/06/10 08:55:02;;;;;;;7.53;5.00;;;24.30;99.90;;;;;;5017767;28;20080;-69
2023/06/10 08:57:30;;;;;;;11.10;5.18;;;24.30;99.90;;;;;;5017311;28;20088;-68
2023/06/10 08:59:56;;;;;;;9.32;4.63;;;24.40;99.90;;;;;;5017689;28;20023;-68
2023/06/10 09:02:23;;;;;;;7.55;4.95;;;24.60;99.90;;;;;;5017120;28;20030;-69
2023/06/10 09:04:49;;;;;;;8.77;5.40;;;24.80;99.90;;;;;;5017205;28;20026;-68
2023/06/10 09:07:16;;;;;;;10.45;5.20;;;25.10;99.90;;;;;;5017122;28;20031;-68
2023/06/10 09:09:43;;;;;;;8.23;5.22;;;25.30;99.90;;;;;;5017384;28;20034;-69
2023/06/10 09:12:10;;;;;;;9.10;4.78;;;25.40;99.90;;;;;;5016994;28;20027;-68
2023/06/10 09:14:35;;;;;;;7.07;4.80;;;25.60;99.90;;;;;;5016787;28;20026;-68
2023/06/10 09:17:02;;;;;;;12.10;5.22;;;25.80;99.90;;;;;;5016736;28;20041;-68
2023/06/10 09:19:29;;;;;;;6.70;5.30;;;26.20;99.90;;;;;;5016794;28;20114;-68
2023/06/10 09:21:54;;;;;;;6.90;5.07;;;26.40;99.90;;;;;;5016471;28;20057;-68
2023/06/10 09:24:22;;;;;;;10.90;4.75;;;26.40;99.90;;;;;;5016734;28;20014;-69
2023/06/10 09:26:47;;;;;;;7.13;4.53;;;26.20;99.90;;;;;;5016602;28;20113;-68
2023/06/10 09:29:13;;;;;;;8.43;5.22;;;26.20;99.90;;;;;;5017159;28;20054;-68
2023/06/10 09:31:40;;;;;;;7.10;4.88;;;26.10;99.90;;;;;;5016455;28;20058;-68
2023/06/10 09:34:07;;;;;;;8.45;5.22;;;26.20;99.90;;;;;;5016461;28;20031;-68
2023/06/10 09:36:35;;;;;;;7.75;5.25;;;26.20;99.90;;;;;;5016545;28;20026;-68
2023/06/10 09:39:00;;;;;;;8.05;4.78;;;26.40;99.90;;;;;;5016673;28;20101;-68
2023/06/10 09:41:39;;;;;;;6.28;4.82;;;26.50;99.90;;;;;;5016464;28;20078;-68
2023/06/10 09:44:20;;;;;;;10.20;5.70;;;26.60;99.90;;;;;;5016892;28;20030;-68
2023/06/10 09:46:46;;;;;;;;;;;27.10;99.90;;;;;;5017306;28;20030;-69
2023/06/10 09:49:12;;;;;;;8.95;5.18;;;27.50;99.90;;;;;;5016338;28;19909;-68
2023/06/10 09:51:37;;;;;;;6.38;4.70;;;27.40;99.90;;;;;;5016122;28;20117;-68
2023/06/10 09:54:04;;;;;;;7.97;4.43;;;27.50;99.90;;;;;;5016128;28;20022;-68
2023/06/10 09:56:34;;;;;;;8.07;4.85;;;27.80;99.90;;;;;;5016566;28;20061;-68
2023/06/10 09:59:00;;;;;;;7.63;4.88;;;28.00;99.90;;;;;;5016231;28;20022;-68
2023/06/10 10:01:26;;;;;;;8.60;4.80;;;28.00;99.90;;;;;;5015361;28;20037;-68
2023/06/10 10:03:52;;;;;;;8.52;4.93;;;28.10;99.90;;;;;;5016218;28;20076;-68
2023/06/10 10:06:19;;;;;;;9.45;4.55;;;28.10;99.90;;;;;;5015613;28;20030;-68
2023/06/10 10:08:47;;;;;;;9.30;5.60;;;28.00;99.90;;;;;;5015874;28;20091;-68
2023/06/10 10:11:17;;;;;;;9.43;4.72;;;28.10;99.90;;;;;;5016344;28;20027;-68
2023/06/10 10:13:48;;;;;;;10.73;4.57;;;28.20;99.90;;;;;;5015814;28;20027;-69
2023/06/10 10:16:27;;;;;;;6.53;4.47;;;28.30;99.90;;;;;;5015419;28;20038;-69
2023/06/10 10:18:55;;;;;;;5.38;4.50;;;28.40;99.90;;;;;;5015795;28;20050;-68
2023/06/10 10:21:25;;;;;;;8.45;4.55;;;28.50;99.90;;;;;;5015852;28;20041;-68
2023/06/10 10:24:00;;;;;;;9.35;4.95;;;28.70;99.90;;;;;;5015643;28;20018;-68
2023/06/10 10:26:26;;;;;;;8.52;5.07;;;28.80;99.90;;;;;;5016023;28;20060;-69
2023/06/10 10:29:05;;;;;;;6.68;4.93;;;28.80;99.90;;;;;;5015409;28;20027;-69
2023/06/10 10:31:34;;;;;;;7.55;4.40;;;29.00;99.90;;;;;;5015357;28;20030;-68
2023/06/10 10:34:04;;;;;;;6.47;4.35;;;29.20;99.90;;;;;;5015493;28;20022;-68
2023/06/10 10:36:31;;;;;;;11.55;4.63;;;29.30;99.90;;;;;;5015377;28;20037;-68
2023/06/10 10:38:58;;;;;;;5.93;4.15;;;29.30;99.90;;;;;;5015401;28;20026;-68
2023/06/10 10:41:26;;;;;;;12.25;4.80;;;29.40;99.90;;;;;;5015214;28;20031;-68
2023/06/10 10:43:52;;;;;;;5.53;4.63;;;29.60;99.70;;;;;;5015886;28;20058;-71
2023/06/10 10:46:18;;;;;;;6.05;4.70;;;29.80;98.80;;;;;;5015117;28;20054;-71
2023/06/10 10:48:44;;;;;;;9.43;4.68;;;29.60;99.00;;;;;;5016045;28;20029;-71
2023/06/10 10:51:11;;;;;;;6.18;4.35;;;29.10;99.90;;;;;;5015025;28;20034;-71
2023/06/10 10:53:40;;;;;;;8.55;5.00;;;29.40;99.90;;;;;;5015102;28;20042;-72
2023/06/10 10:56:07;;;;;;;8.98;4.22;;;29.70;97.90;;;;;;5015060;28;20034;-72
2023/06/10 10:58:33;;;;;;;8.70;4.90;;;29.70;97.20;;;;;;5014922;28;20022;-72
2023/06/10 11:00:59;;;;;;;10.60;5.15;;;29.80;96.80;;;;;;5014977;28;20026;-72
2023/06/10 11:03:32;;;;;;;6.18;4.90;;;30.20;96.50;;;;;;5014488;28;20027;-72
2023/06/10 11:05:58;;;;;;;5.88;4.32;;;30.30;94.30;;;;;;5015414;28;20117;-72
2023/06/10 11:08:33;;;;;;;6.20;4.32;;;30.60;91.90;;;;;;5014850;28;20023;-72
2023/06/10 11:10:59;;;;;;;9.02;4.03;;;30.90;91.40;;;;;;4998082;28;20018;-72
2023/06/10 11:13:26;;;;;;;7.78;4.07;;;30.80;89.60;;;;;;4998392;28;20031;-71
2023/06/10 11:15:56;;;;;;;7.93;4.22;;;30.70;89.70;;;;;;5015118;28;20137;-71
2023/06/10 11:18:41;;;;;;;7.32;4.10;;;30.70;87.50;;;;;;4999193;28;20023;-71
2023/06/10 11:21:06;;;;;;;6.63;4.00;;;30.90;88.60;;;;;;5014095;28;20165;-71
2023/06/10 11:23:33;;;;;;;9.25;4.38;;;30.60;82.30;;;;;;5015434;28;20062;-71
2023/06/10 11:26:14;;;;;;;10.07;3.90;;;30.70;84.10;;;;;;4998982;28;20030;-71
2023/06/10 11:28:41;;;;;;;5.43;3.80;;;31.00;82.40;;;;;;4997863;28;20032;-71
2023/06/10 11:31:07;;;;;;;5.30;4.22;;;31.10;80.40;;;;;;4998780;28;20030;-71
2023/06/10 11:33:33;;;;;;;13.75;4.47;;;31.20;80.60;;;;;;5014860;28;20028;-71
2023/06/10 11:35:59;;;;;;;4.35;3.90;;;31.30;78.70;;;;;;5013937;28;20022;-72
2023/06/10 11:38:24;;;;;;;12.02;4.13;;;31.40;77.70;;;;;;5014277;28;20028;-71
2023/06/10 11:40:51;;;;;;;8.45;4.38;;;31.40;77.10;;;;;;5014297;28;20026;-71
2023/06/10 11:43:20;;;;;;;4.43;3.55;;;31.50;76.80;;;;;;4998769;28;20064;-71
2023/06/10 11:45:46;;;;;;;5.93;4.07;;;31.60;73.30;;;;;;4998639;28;20022;-71
2023/06/10 11:48:12;;;;;;;11.80;4.63;;;31.60;73.60;;;;;;5014531;28;20151;-71
2023/06/10 11:50:41;;;;;;;4.97;3.70;;;31.70;74.10;;;;;;5013774;28;20028;-71
2023/06/10 11:53:08;;;;;;;5.22;3.75;;;31.50;71.80;;;;;;5013729;28;20030;-71
2023/06/10 11:55:48;;;;;;;9.48;3.92;;;31.30;72.60;;;;;;5014394;28;20037;-71
2023/06/10 11:58:17;;;;;;;7.97;4.05;;;31.50;72.60;;;;;;5013728;28;20026;-71
2023/06/10 12:00:57;;;;;;;5.32;4.20;;;31.90;73.50;;;;;;5013420;28;20029;-71
2023/06/10 12:03:23;;;;;;;6.13;3.90;;;32.50;73.90;;;;;;5013674;28;20120;-71
2023/06/10 12:06:06;;;;;;;5.45;3.35;;;32.30;68.50;;;;;;5013508;28;20026;-71
2023/06/10 12:08:33;;;;;;;4.97;3.90;;;32.10;68.60;;;;;;5013547;28;20030;-71
2023/06/10 12:10:58;;;;;;;4.05;3.65;;;32.10;68.50;;;;;;4997870;28;20026;-71
2023/06/10 12:13:27;;;;;;;7.13;3.83;;;32.10;69.80;;;;;;4998160;28;20034;-71
2023/06/10 12:15:53;;;;;;;6.60;3.90;;;32.00;69.50;;;;;;5013574;28;20054;-71
2023/06/10 12:18:23;;;;;;;7.13;3.67;;;32.10;69.50;;;;;;5013300;28;20054;-71
2023/06/10 12:20:50;;;;;;;7.13;4.20;;;32.00;67.00;;;;;;5013123;28;20141;-71
2023/06/10 12:23:17;;;;;;;6.32;4.13;;;31.70;68.40;;;;;;4997960;28;20045;-71
2023/06/10 12:25:54;;;;;;;5.05;4.00;;;32.00;69.50;;;;;;5012682;28;20022;-71
2023/06/10 12:28:26;;;;;;;10.55;3.75;;;31.80;68.30;;;;;;4997695;28;20030;-72
2023/06/10 12:31:16;;;;;;;5.75;3.75;;;31.50;66.30;;;;;;5014256;28;20109;-71
2023/06/10 12:33:43;;;;;;;7.65;3.60;;;31.20;66.60;;;;;;4997448;28;20034;-71
2023/06/10 12:36:16;;;;;;;7.88;4.22;;;31.10;69.20;;;;;;4997726;28;20023;-72
2023/06/10 12:38:42;;;;;;;8.15;4.03;;;30.90;70.40;;;;;;5013167;28;20022;-71
2023/06/10 12:41:08;;;;;;;7.78;3.95;;;30.90;70.90;;;;;;4997856;28;20025;-72
2023/06/10 12:43:34;;;;;;;7.70;3.70;;;31.20;68.60;;;;;;4996785;28;20023;-71